Time;durP1;ratioP1;P1;durP2;ratioP2;P2;SDS_P1;SDS_P2;PMS_P1;PMS_P2;Temp;Humidity;BMP_temperature;BMP_pressure;BME280_temperature;BME280_humidity;BME280_pressure;Samples;Min_cycle;Max_cycle;Signal;HPM_P1;HPM_P2
2021/03/14 00:00:48;;;;;;;0.30;0.30;;;6.20;99.90;;;;;;5003763;28;20278;-93
2021/03/14 00:03:19;;;;;;;0.33;0.33;;;6.20;99.90;;;;;;4998712;28;20781;-92
2021/03/14 00:05:47;;;;;;;0.97;0.97;;;6.20;99.90;;;;;;5022726;28;20238;-92
2021/03/14 00:08:14;;;;;;;0.30;0.30;;;6.20;99.90;;;;;;5039522;28;20363;-91
2021/03/14 00:10:43;;;;;;;0.40;0.40;;;6.20;99.90;;;;;;5008151;28;20195;-92
2021/03/14 00:13:10;;;;;;;1.07;0.60;;;6.20;99.90;;;;;;5039566;28;20225;-93
2021/03/14 00:15:36;;;;;;;2.43;0.67;;;6.20;99.90;;;;;;4996330;28;20211;-92
2021/03/14 00:18:03;;;;;;;1.80;0.77;;;6.20;99.90;;;;;;4983994;28;20220;-92
2021/03/14 00:20:29;;;;;;;4.27;0.60;;;6.20;99.90;;;;;;5009536;28;20571;-92
2021/03/14 00:22:55;;;;;;;0.87;0.87;;;6.20;99.90;;;;;;5009488;28;20187;-92
2021/03/14 00:25:20;;;;;;;0.50;0.50;;;6.20;99.90;;;;;;4995708;28;20194;-92
2021/03/14 00:27:46;;;;;;;2.50;0.87;;;6.20;99.90;;;;;;5009927;28;21343;-93
2021/03/14 00:30:14;;;;;;;0.40;0.40;;;6.20;99.90;;;;;;4983195;28;20218;-91
2021/03/14 00:32:42;;;;;;;0.97;0.57;;;6.20;99.90;;;;;;5012217;28;20229;-90
2021/03/14 00:35:10;;;;;;;5.07;2.47;;;6.20;99.90;;;;;;4994065;28;20244;-92
2021/03/14 00:37:36;;;;;;;0.20;0.20;;;6.20;99.90;;;;;;5027464;28;20549;-93
2021/03/14 00:40:06;;;;;;;0.20;0.20;;;6.10;99.90;;;;;;4993726;28;20213;-92
2021/03/14 00:42:32;;;;;;;4.27;1.90;;;6.10;99.90;;;;;;5019774;28;20218;-93
2021/03/14 00:44:58;;;;;;;0.10;0.10;;;6.10;99.90;;;;;;5003703;28;20218;-93
2021/03/14 00:47:24;;;;;;;1.30;0.50;;;6.10;99.90;;;;;;5026221;28;20256;-90
2021/03/14 00:49:49;;;;;;;2.70;0.70;;;6.10;99.90;;;;;;4995194;28;20277;-92
2021/03/14 00:52:15;;;;;;;0.97;0.97;;;6.10;99.90;;;;;;4993718;28;20759;-92
2021/03/14 00:54:41;;;;;;;0.80;0.30;;;6.10;99.90;;;;;;4978565;28;20223;-93
2021/03/14 00:57:08;;;;;;;4.37;0.40;;;6.10;99.90;;;;;;4981557;28;20574;-93
2021/03/14 00:59:33;;;;;;;1.70;0.67;;;6.10;99.90;;;;;;4995508;28;20215;-93
2021/03/14 01:01:59;;;;;;;1.00;0.93;;;6.10;99.90;;;;;;5010823;28;21105;-91
2021/03/14 01:04:26;;;;;;;1.90;1.00;;;6.10;99.90;;;;;;5014828;28;20182;-93
2021/03/14 01:06:52;;;;;;;4.90;3.23;;;6.10;99.90;;;;;;5029396;28;20225;-92
2021/03/14 01:09:18;;;;;;;0.43;0.40;;;6.10;99.90;;;;;;5012042;28;20772;-90
2021/03/14 01:11:44;;;;;;;0.53;0.53;;;6.00;99.90;;;;;;4996221;28;20218;-92
2021/03/14 01:14:10;;;;;;;3.57;1.00;;;6.00;99.90;;;;;;4996595;28;22348;-92
2021/03/14 01:16:36;;;;;;;2.10;1.97;;;6.00;99.90;;;;;;5014642;28;20313;-91
2021/03/14 01:19:02;;;;;;;1.57;1.30;;;6.00;99.90;;;;;;4996542;28;20360;-93
2021/03/14 01:21:28;;;;;;;0.47;0.47;;;6.00;99.90;;;;;;4999145;28;20230;-93
2021/03/14 01:23:54;;;;;;;1.20;0.60;;;6.00;99.90;;;;;;5001307;28;20301;-93
2021/03/14 01:26:19;;;;;;;0.43;0.43;;;6.00;99.90;;;;;;5012671;28;20697;-93
2021/03/14 01:28:48;;;;;;;0.30;0.30;;;6.00;99.90;;;;;;5014618;28;20186;-91
2021/03/14 01:31:15;;;;;;;18.83;2.40;;;5.90;99.90;;;;;;5012934;28;20677;-93
2021/03/14 01:33:40;;;;;;;2.73;0.97;;;5.90;99.90;;;;;;4980135;28;20210;-92
2021/03/14 01:36:07;;;;;;;4.63;3.63;;;5.90;99.90;;;;;;5002477;28;20268;-91
2021/03/14 01:38:33;;;;;;;0.77;0.40;;;5.90;99.90;;;;;;5012547;28;20221;-92
2021/03/14 01:40:59;;;;;;;2.03;0.30;;;5.90;99.90;;;;;;4996458;28;20579;-93
2021/03/14 01:43:25;;;;;;;0.13;0.13;;;5.90;99.90;;;;;;5013872;28;20193;-91
2021/03/14 01:45:51;;;;;;;0.10;0.10;;;5.90;99.90;;;;;;4995647;28;20264;-92
2021/03/14 01:48:22;;;;;;;1.53;1.50;;;5.90;99.90;;;;;;5004746;28;20709;-91
2021/03/14 01:50:48;;;;;;;0.63;0.63;;;5.90;99.90;;;;;;5028346;28;20213;-93
2021/03/14 01:53:14;;;;;;;2.67;0.67;;;5.90;99.90;;;;;;5012049;28;20232;-92
2021/03/14 01:55:40;;;;;;;1.20;0.87;;;5.90;99.90;;;;;;5029152;28;20309;-92
2021/03/14 01:58:06;;;;;;;0.73;0.50;;;5.90;99.90;;;;;;4994525;28;20329;-91
2021/03/14 02:00:33;;;;;;;5.33;0.93;;;5.90;99.90;;;;;;4998986;28;20649;-92
2021/03/14 02:02:58;;;;;;;5.37;0.43;;;5.90;99.90;;;;;;5019300;28;20241;-89
2021/03/14 02:05:24;;;;;;;4.27;1.00;;;5.90;99.90;;;;;;4980009;28;20221;-91
2021/03/14 02:07:53;;;;;;;4.43;1.97;;;5.80;99.90;;;;;;4982599;28;20239;-90
2021/03/14 02:10:26;;;;;;;0.47;0.47;;;5.90;99.90;;;;;;5028803;28;20216;-93
2021/03/14 02:13:03;;;;;;;0.47;0.40;;;5.90;99.90;;;;;;5027714;28;20222;-91
2021/03/14 02:15:32;;;;;;;5.10;1.27;;;5.90;99.90;;;;;;5015376;28;20211;-93
2021/03/14 02:17:59;;;;;;;0.20;0.20;;;5.90;99.90;;;;;;5012333;28;20233;-92
2021/03/14 02:20:28;;;;;;;0.60;0.60;;;5.90;99.90;;;;;;5012004;28;20228;-92
2021/03/14 02:23:07;;;;;;;0.87;0.60;;;5.90;99.90;;;;;;5011285;28;20182;-90
2021/03/14 02:25:46;;;;;;;2.23;0.47;;;5.90;99.90;;;;;;5029643;28;20174;-92
2021/03/14 02:28:13;;;;;;;4.23;1.13;;;5.90;99.90;;;;;;5016639;28;20291;-92
2021/03/14 02:30:41;;;;;;;6.40;2.47;;;5.90;99.90;;;;;;4989301;28;20231;-92
2021/03/14 02:33:08;;;;;;;0.47;0.47;;;5.90;99.90;;;;;;5017826;28;20221;-92
2021/03/14 02:35:35;;;;;;;2.00;0.83;;;5.90;99.90;;;;;;5011885;28;20288;-92
2021/03/14 02:38:02;;;;;;;0.60;0.60;;;5.90;99.90;;;;;;5011536;28;20186;-92
2021/03/14 02:40:28;;;;;;;3.93;0.60;;;5.90;99.90;;;;;;5028424;28;20198;-91
2021/03/14 02:42:55;;;;;;;2.00;0.73;;;5.90;99.90;;;;;;5027427;28;20271;-92
2021/03/14 02:45:21;;;;;;;1.13;0.30;;;6.00;99.90;;;;;;4995432;28;20217;-92
2021/03/14 02:47:46;;;;;;;5.80;1.80;;;5.90;99.90;;;;;;4987438;28;20578;-92
2021/03/14 02:50:16;;;;;;;0.30;0.30;;;6.00;99.90;;;;;;4979373;28;20619;-91
2021/03/14 02:52:44;;;;;;;0.60;0.60;;;5.90;99.90;;;;;;5012481;28;20408;-91
2021/03/14 02:55:11;;;;;;;0.33;0.33;;;5.90;99.90;;;;;;5044202;28;20210;-91
2021/03/14 02:57:38;;;;;;;3.53;1.13;;;5.80;99.90;;;;;;5010667;28;20213;-92
2021/03/14 03:00:11;;;;;;;6.23;1.17;;;5.80;99.90;;;;;;5007422;28;20744;-91
2021/03/14 03:02:38;;;;;;;3.67;1.17;;;5.80;99.90;;;;;;5013821;28;20237;-91
2021/03/14 03:05:06;;;;;;;0.73;0.73;;;5.80;99.90;;;;;;4994988;28;20212;-92
2021/03/14 03:07:33;;;;;;;2.13;0.57;;;5.80;99.90;;;;;;5004429;28;20186;-92
2021/03/14 03:09:59;;;;;;;1.00;1.00;;;5.80;99.90;;;;;;5003563;28;20237;-90
2021/03/14 03:12:26;;;;;;;0.27;0.27;;;5.80;99.90;;;;;;4997324;28;20313;-92
2021/03/14 03:14:55;;;;;;;3.00;1.20;;;5.80;99.90;;;;;;4983219;28;20574;-91
2021/03/14 03:17:25;;;;;;;2.53;1.43;;;5.80;99.90;;;;;;5009011;28;20227;-91
2021/03/14 03:19:53;;;;;;;2.43;1.63;;;5.70;99.90;;;;;;4987947;28;20659;-92
2021/03/14 03:22:21;;;;;;;2.67;0.93;;;5.70;99.90;;;;;;4989320;28;20213;-92
2021/03/14 03:24:47;;;;;;;1.70;1.60;;;5.70;99.90;;;;;;5004388;28;20219;-92
2021/03/14 03:27:13;;;;;;;0.37;0.37;;;5.60;99.90;;;;;;4967906;28;20226;-90
2021/03/14 03:29:39;;;;;;;3.03;0.93;;;5.60;99.90;;;;;;4974721;28;20242;-92
2021/03/14 03:32:05;;;;;;;0.47;0.47;;;5.60;99.90;;;;;;4986166;28;20218;-92
2021/03/14 03:34:31;;;;;;;1.80;1.70;;;5.50;99.90;;;;;;4989296;28;20278;-91
2021/03/14 03:36:57;;;;;;;3.87;1.43;;;5.60;99.90;;;;;;4987146;28;20349;-91
2021/03/14 03:39:23;;;;;;;2.03;0.93;;;5.60;99.90;;;;;;4958863;28;20219;-92
2021/03/14 03:41:51;;;;;;;1.33;1.07;;;5.50;99.90;;;;;;4976171;28;20230;-93
2021/03/14 03:44:20;;;;;;;1.13;0.73;;;5.50;99.90;;;;;;5003848;28;20233;-92
2021/03/14 03:46:49;;;;;;;3.70;1.00;;;5.50;99.90;;;;;;5005265;28;20190;-92
2021/03/14 03:49:17;;;;;;;6.50;1.60;;;5.50;99.90;;;;;;5020505;28;20319;-91
2021/03/14 03:51:43;;;;;;;8.60;2.07;;;5.50;99.90;;;;;;5003077;28;20246;-91
2021/03/14 03:54:09;;;;;;;2.60;2.40;;;5.60;99.90;;;;;;4987616;28;20264;-92
2021/03/14 03:56:37;;;;;;;1.73;1.63;;;5.60;99.90;;;;;;4971803;28;20760;-92
2021/03/14 03:59:05;;;;;;;3.17;2.47;;;5.50;99.90;;;;;;4987069;28;20306;-92
2021/03/14 04:01:31;;;;;;;4.27;0.80;;;5.50;99.90;;;;;;4988138;28;20190;-91
2021/03/14 04:04:00;;;;;;;1.60;0.50;;;5.50;99.90;;;;;;4962487;28;20703;-91
2021/03/14 04:06:27;;;;;;;0.40;0.40;;;5.50;99.90;;;;;;4993413;28;20298;-92
2021/03/14 04:08:53;;;;;;;0.57;0.57;;;5.50;99.90;;;;;;4975495;28;20962;-92
2021/03/14 04:11:20;;;;;;;0.77;0.77;;;5.50;99.90;;;;;;4987047;28;20310;-92
2021/03/14 04:13:47;;;;;;;11.80;1.70;;;5.40;99.90;;;;;;4973173;28;20187;-92
2021/03/14 04:16:14;;;;;;;1.57;1.00;;;5.40;99.90;;;;;;4994707;28;20551;-91
2021/03/14 04:18:42;;;;;;;4.13;1.97;;;5.50;99.90;;;;;;4997613;28;20207;-91
2021/03/14 04:21:12;;;;;;;0.90;0.80;;;5.50;99.90;;;;;;5017633;28;20351;-91
2021/03/14 04:23:40;;;;;;;0.80;0.43;;;5.50;99.90;;;;;;5026392;28;20767;-91
2021/03/14 04:26:06;;;;;;;6.00;2.70;;;5.50;99.90;;;;;;5026482;28;20269;-91
2021/03/14 04:28:33;;;;;;;7.33;1.23;;;5.60;99.90;;;;;;4995891;28;20253;-92
2021/03/14 04:31:00;;;;;;;9.73;0.83;;;5.50;99.90;;;;;;4993675;28;20218;-92
2021/03/14 04:33:28;;;;;;;0.97;0.53;;;5.50;99.90;;;;;;4998574;28;20226;-91
2021/03/14 04:35:58;;;;;;;13.57;0.70;;;5.50;99.90;;;;;;5009951;28;20225;-92
2021/03/14 04:38:26;;;;;;;1.17;1.07;;;5.50;99.90;;;;;;5015074;28;20228;-93
2021/03/14 04:40:54;;;;;;;1.30;1.07;;;5.50;99.90;;;;;;5030645;28;20209;-92
2021/03/14 04:43:22;;;;;;;8.40;1.30;;;5.50;99.90;;;;;;5031673;28;20757;-92
2021/03/14 04:45:49;;;;;;;3.00;1.17;;;5.50;99.90;;;;;;5029623;28;20295;-92
2021/03/14 04:48:20;;;;;;;2.27;0.87;;;5.40;99.90;;;;;;5005647;28;20238;-91
2021/03/14 04:50:47;;;;;;;3.93;1.37;;;5.30;99.90;;;;;;5046221;28;20220;-91
2021/03/14 04:53:14;;;;;;;1.27;1.17;;;5.30;99.90;;;;;;5012931;28;20598;-92
2021/03/14 04:55:43;;;;;;;0.97;0.47;;;5.20;99.90;;;;;;4998607;28;20182;-91
2021/03/14 04:58:13;;;;;;;0.83;0.83;;;5.20;99.90;;;;;;5029760;28;20209;-91
2021/03/14 05:00:41;;;;;;;1.43;1.33;;;5.20;99.90;;;;;;5029891;28;20214;-92
2021/03/14 05:03:11;;;;;;;0.43;0.43;;;5.20;99.90;;;;;;5029492;28;20209;-92
2021/03/14 05:05:42;;;;;;;2.83;2.63;;;5.20;99.90;;;;;;5029654;28;20214;-91
2021/03/14 05:08:11;;;;;;;6.23;1.20;;;5.10;99.90;;;;;;5028721;28;20328;-93
2021/03/14 05:10:40;;;;;;;0.30;0.30;;;5.10;99.90;;;;;;5031121;28;20194;-91
2021/03/14 05:13:06;;;;;;;4.67;0.77;;;5.10;99.90;;;;;;4993497;28;20248;-91
2021/03/14 05:15:33;;;;;;;1.30;0.80;;;5.10;99.90;;;;;;5007034;28;20214;-92
2021/03/14 05:18:00;;;;;;;1.13;1.03;;;5.00;99.90;;;;;;4996716;28;20218;-90
2021/03/14 05:20:27;;;;;;;1.10;0.40;;;5.00;99.90;;;;;;5012947;28;20291;-90
2021/03/14 05:22:55;;;;;;;0.70;0.70;;;5.00;99.90;;;;;;5012741;28;20331;-92
2021/03/14 05:25:22;;;;;;;7.30;2.97;;;5.00;99.90;;;;;;5046918;28;20599;-93
2021/03/14 05:27:50;;;;;;;4.03;1.73;;;5.00;99.90;;;;;;5012188;28;20300;-91
2021/03/14 05:30:28;;;;;;;1.23;0.87;;;5.00;99.90;;;;;;5012553;28;20230;-92
2021/03/14 05:32:56;;;;;;;0.67;0.67;;;5.00;99.90;;;;;;5027864;28;20241;-92
2021/03/14 05:35:26;;;;;;;0.37;0.37;;;5.00;99.90;;;;;;5029339;28;20218;-91
2021/03/14 05:37:52;;;;;;;2.40;1.07;;;5.00;99.90;;;;;;5029728;28;20190;-93
2021/03/14 05:40:20;;;;;;;3.90;1.30;;;5.00;99.90;;;;;;5013904;28;20275;-90
2021/03/14 05:42:47;;;;;;;0.30;0.30;;;5.10;99.90;;;;;;5044337;28;20218;-93
2021/03/14 05:45:13;;;;;;;0.30;0.30;;;5.20;99.90;;;;;;5043186;28;20301;-92
2021/03/14 05:47:40;;;;;;;0.53;0.53;;;5.20;99.90;;;;;;5011830;28;20221;-92
2021/03/14 05:50:08;;;;;;;1.33;0.73;;;5.30;99.90;;;;;;5011518;28;20179;-93
2021/03/14 05:52:37;;;;;;;3.73;0.93;;;5.20;99.90;;;;;;5029751;28;20205;-92
2021/03/14 05:55:04;;;;;;;0.87;0.70;;;5.20;99.90;;;;;;5004362;28;20280;-92
2021/03/14 05:57:30;;;;;;;17.03;1.13;;;5.20;99.90;;;;;;5015534;28;20226;-92
2021/03/14 05:59:57;;;;;;;8.50;2.37;;;5.20;99.90;;;;;;5023646;28;20330;-90
2021/03/14 06:02:26;;;;;;;1.00;1.00;;;5.20;99.90;;;;;;5011981;28;20202;-93
2021/03/14 06:04:54;;;;;;;0.27;0.27;;;5.20;99.90;;;;;;5001273;28;20562;-92
2021/03/14 06:07:21;;;;;;;12.20;0.80;;;5.20;99.90;;;;;;5029800;28;20206;-91
2021/03/14 06:09:46;;;;;;;2.13;1.13;;;5.30;99.90;;;;;;5011933;28;20225;-91
2021/03/14 06:12:15;;;;;;;0.47;0.47;;;5.30;99.90;;;;;;4991344;28;20226;-92
2021/03/14 06:14:41;;;;;;;3.33;2.00;;;5.30;99.90;;;;;;4991109;28;20215;-92
2021/03/14 06:17:07;;;;;;;1.57;0.87;;;5.40;99.90;;;;;;4990471;28;20236;-92
2021/03/14 06:19:33;;;;;;;0.93;0.93;;;5.40;99.90;;;;;;5025831;28;20188;-92
2021/03/14 06:22:22;;;;;;;2.90;0.80;;;5.50;99.90;;;;;;4992629;28;20240;-91
2021/03/14 06:24:49;;;;;;;5.13;0.40;;;5.50;99.90;;;;;;5027348;28;20229;-91
2021/03/14 06:27:54;;;;;;;1.33;1.23;;;5.60;99.90;;;;;;4983480;28;20718;-93
2021/03/14 06:30:26;;;;;;;9.27;0.97;;;5.60;99.90;;;;;;5020071;28;20237;-90
2021/03/14 06:33:03;;;;;;;3.17;0.70;;;5.90;99.90;;;;;;5027193;28;20229;-91
2021/03/14 06:35:45;;;;;;;1.80;1.13;;;6.20;99.90;;;;;;5026278;28;20302;-92
2021/03/14 06:38:27;;;;;;;1.67;1.57;;;6.20;99.90;;;;;;5011594;28;20226;-92
2021/03/14 06:41:02;;;;;;;0.33;0.33;;;6.10;99.90;;;;;;5027424;28;20251;-92
2021/03/14 06:43:42;;;;;;;0.90;0.43;;;6.10;99.90;;;;;;5029178;28;20191;-94
2021/03/14 06:46:30;;;;;;;1.40;0.80;;;6.10;99.90;;;;;;5012296;28;20202;-91
2021/03/14 06:49:12;;;;;;;0.50;0.50;;;6.10;99.90;;;;;;5026939;28;20206;-92
2021/03/14 06:51:53;;;;;;;2.27;0.93;;;6.10;99.90;;;;;;5027327;28;20285;-92
2021/03/14 06:54:27;;;;;;;7.20;2.07;;;6.10;99.90;;;;;;5027307;28;20320;-91
2021/03/14 06:57:02;;;;;;;0.37;0.37;;;6.10;99.90;;;;;;5018502;28;20236;-92
2021/03/14 06:59:30;;;;;;;1.73;1.63;;;6.10;99.90;;;;;;5007818;28;20291;-90
2021/03/14 07:02:09;;;;;;;8.40;0.77;;;6.30;99.90;;;;;;5007606;28;20205;-91
2021/03/14 07:04:51;;;;;;;0.10;0.10;;;6.60;99.90;;;;;;5009457;28;20582;-92
2021/03/14 07:07:25;;;;;;;0.30;0.30;;;7.60;99.90;;;;;;5044075;28;20233;-90
2021/03/14 07:09:57;;;;;;;7.03;1.30;;;9.30;99.90;;;;;;5027069;28;20221;-93
2021/03/14 07:12:43;;;;;;;1.00;1.00;;;10.70;99.90;;;;;;5014075;28;20629;-92
2021/03/14 07:15:11;;;;;;;0.33;0.33;;;11.40;99.90;;;;;;5006699;28;20240;-92
2021/03/14 07:17:37;;;;;;;0.40;0.40;;;11.70;99.90;;;;;;5003491;28;20230;-91
2021/03/14 07:20:09;;;;;;;1.23;0.83;;;12.30;99.90;;;;;;5003602;28;20217;-93
2021/03/14 07:22:36;;;;;;;2.20;0.67;;;13.50;99.90;;;;;;5028262;28;20261;-92
2021/03/14 07:25:04;;;;;;;2.27;1.10;;;13.20;99.90;;;;;;5044398;28;20218;-90
2021/03/14 07:27:29;;;;;;;3.93;2.03;;;13.20;99.90;;;;;;5026708;28;20682;-91
2021/03/14 07:29:57;;;;;;;4.30;1.70;;;12.80;99.90;;;;;;5002049;28;20209;-90
2021/03/14 07:32:24;;;;;;;1.23;1.13;;;12.90;99.90;;;;;;5010569;28;20234;-89
2021/03/14 07:34:50;;;;;;;3.67;0.93;;;12.10;99.90;;;;;;5046625;28;20289;-93
2021/03/14 07:37:17;;;;;;;1.30;1.00;;;12.10;99.90;;;;;;5028706;28;20228;-90
2021/03/14 07:39:46;;;;;;;1.33;0.80;;;12.40;99.90;;;;;;5026456;28;20732;-91
2021/03/14 07:42:12;;;;;;;5.40;1.73;;;12.90;99.90;;;;;;5010290;28;20268;-93
2021/03/14 07:44:38;;;;;;;3.00;1.77;;;13.20;99.90;;;;;;5024192;28;20558;-92
2021/03/14 07:47:05;;;;;;;9.53;1.87;;;13.30;99.90;;;;;;4993922;28;20174;-90
2021/03/14 07:49:34;;;;;;;4.87;1.60;;;13.70;99.90;;;;;;4995490;28;20184;-90
2021/03/14 07:52:04;;;;;;;5.50;1.87;;;14.50;99.90;;;;;;5021972;28;20233;-93
2021/03/14 07:54:52;;;;;;;4.83;1.67;;;13.90;99.90;;;;;;5022948;28;20215;-91
2021/03/14 07:57:22;;;;;;;2.03;1.17;;;14.50;99.90;;;;;;5018764;28;20228;-92
2021/03/14 07:59:48;;;;;;;3.03;0.60;;;13.80;99.90;;;;;;5027081;28;20636;-93
2021/03/14 08:02:19;;;;;;;1.03;0.77;;;14.10;99.90;;;;;;5010424;28;20217;-93
2021/03/14 08:05:05;;;;;;;0.20;0.20;;;12.90;99.90;;;;;;5045758;28;20190;-94
2021/03/14 08:07:34;;;;;;;4.97;1.00;;;11.40;99.90;;;;;;4995228;28;20226;-92
2021/03/14 08:10:04;;;;;;;1.73;1.63;;;10.60;99.90;;;;;;5029947;28;20651;-94
2021/03/14 08:12:43;;;;;;;2.50;0.63;;;10.70;99.90;;;;;;5000839;28;20226;-93
2021/03/14 08:15:23;;;;;;;0.90;0.90;;;11.40;99.90;;;;;;5011150;28;20600;-93
2021/03/14 08:17:52;;;;;;;1.00;0.60;;;10.80;99.90;;;;;;5018474;28;20600;-91
2021/03/14 08:20:39;;;;;;;2.07;1.90;;;10.70;99.90;;;;;;5013945;28;20576;-92
2021/03/14 08:23:05;;;;;;;1.90;1.80;;;10.00;99.90;;;;;;5014224;28;20185;-93
2021/03/14 08:26:14;;;;;;;3.90;2.30;;;9.70;99.90;;;;;;5031778;28;20193;-91
2021/03/14 08:28:40;;;;;;;4.10;1.50;;;10.70;99.90;;;;;;5006004;28;20214;-93
2021/03/14 08:31:07;;;;;;;2.33;0.83;;;11.50;99.90;;;;;;4978126;28;20217;-94
2021/03/14 08:33:46;;;;;;;1.03;0.97;;;12.30;99.90;;;;;;5023304;28;20232;-93
2021/03/14 08:36:14;;;;;;;1.60;1.03;;;12.00;99.90;;;;;;5005627;28;20297;-93
2021/03/14 08:38:59;;;;;;;5.80;2.23;;;10.70;99.90;;;;;;5030672;28;20579;-93
2021/03/14 08:41:39;;;;;;;0.30;0.30;;;9.90;99.90;;;;;;5029429;28;20214;-92
2021/03/14 08:44:05;;;;;;;1.63;0.57;;;9.80;99.90;;;;;;5046817;28;20185;-92
2021/03/14 08:46:49;;;;;;;1.83;1.30;;;9.50;99.90;;;;;;5031521;28;20595;-93
2021/03/14 08:49:21;;;;;;;1.60;0.53;;;9.30;99.90;;;;;;5029775;28;20582;-92
2021/03/14 08:51:47;;;;;;;2.90;0.53;;;8.90;99.90;;;;;;5014799;28;20217;-93
2021/03/14 08:54:14;;;;;;;4.00;0.77;;;8.80;99.90;;;;;;5027356;28;20789;-91
2021/03/14 08:56:40;;;;;;;4.97;0.90;;;8.40;99.90;;;;;;5018810;28;20256;-95
2021/03/14 08:59:11;;;;;;;5.87;0.90;;;8.30;99.90;;;;;;5018188;28;20822;-91
2021/03/14 09:01:38;;;;;;;5.03;3.63;;;8.30;99.90;;;;;;5032058;28;21088;-94
2021/03/14 09:04:18;;;;;;;0.30;0.30;;;8.30;99.90;;;;;;5032079;28;20295;-94
2021/03/14 09:06:44;;;;;;;0.20;0.20;;;8.00;99.90;;;;;;5015100;28;20352;-93
2021/03/14 09:09:20;;;;;;;0.20;0.20;;;8.00;99.90;;;;;;5023103;28;20210;-93
2021/03/14 09:11:56;;;;;;;1.00;1.00;;;8.10;99.90;;;;;;5033855;28;20594;-91
2021/03/14 09:14:28;;;;;;;0.77;0.70;;;8.10;99.90;;;;;;5006853;28;20677;-93
2021/03/14 09:16:57;;;;;;;3.80;0.90;;;8.30;99.90;;;;;;5028865;28;20234;-91
2021/03/14 09:19:31;;;;;;;1.80;0.70;;;8.60;99.90;;;;;;5029746;28;20189;-91
2021/03/14 09:22:03;;;;;;;0.27;0.27;;;8.60;99.90;;;;;;5029041;28;20674;-94
2021/03/14 09:24:32;;;;;;;0.43;0.43;;;8.50;99.90;;;;;;5016379;28;20227;-92
2021/03/14 09:27:07;;;;;;;0.67;0.60;;;8.50;99.90;;;;;;5020130;28;20225;-95
2021/03/14 09:29:41;;;;;;;7.83;1.23;;;8.70;99.90;;;;;;5029645;28;20213;-92
2021/03/14 09:32:25;;;;;;;1.70;0.60;;;8.50;99.90;;;;;;5028444;28;20205;-94
2021/03/14 09:35:07;;;;;;;0.37;0.37;;;8.30;99.90;;;;;;5028913;28;20186;-94
2021/03/14 09:37:33;;;;;;;0.93;0.73;;;8.20;99.90;;;;;;5032524;28;20277;-94
2021/03/14 09:40:09;;;;;;;3.03;1.07;;;8.40;99.90;;;;;;4994387;28;20316;-94
2021/03/14 09:42:36;;;;;;;0.30;0.30;;;8.70;99.90;;;;;;5027189;28;20279;-91
2021/03/14 09:45:18;;;;;;;1.83;0.60;;;8.70;99.90;;;;;;5010789;28;20313;-94
2021/03/14 09:48:03;;;;;;;0.83;0.83;;;8.70;99.90;;;;;;5028874;28;20225;-92
2021/03/14 09:50:31;;;;;;;0.60;0.60;;;8.80;99.90;;;;;;5028080;28;20306;-95
2021/03/14 09:53:01;;;;;;;0.30;0.30;;;8.80;99.90;;;;;;5010667;28;20297;-92
2021/03/14 09:55:34;;;;;;;1.00;0.53;;;8.70;99.90;;;;;;4993631;28;20542;-93
2021/03/14 09:58:01;;;;;;;5.00;0.83;;;8.50;99.90;;;;;;5026976;28;20213;-94
2021/03/14 10:00:32;;;;;;;5.80;0.70;;;8.40;99.90;;;;;;5028092;28;20702;-95
2021/03/14 10:03:00;;;;;;;1.00;0.50;;;8.60;99.90;;;;;;5044633;28;20916;-94
2021/03/14 10:05:27;;;;;;;2.93;0.90;;;8.80;99.90;;;;;;5009497;28;21173;-93
2021/03/14 10:07:53;;;;;;;21.33;0.90;;;9.00;99.90;;;;;;5016129;28;20247;-91
2021/03/14 10:10:20;;;;;;;0.87;0.50;;;9.10;99.90;;;;;;5028920;28;20577;-93
2021/03/14 10:12:46;;;;;;;0.20;0.20;;;8.80;99.90;;;;;;5027645;28;20210;-93
2021/03/14 10:15:16;;;;;;;0.33;0.33;;;8.70;99.90;;;;;;4984200;28;20259;-93
2021/03/14 10:17:43;;;;;;;0.87;0.87;;;8.80;99.90;;;;;;5014308;28;20917;-92
2021/03/14 10:20:10;;;;;;;0.50;0.50;;;9.30;99.90;;;;;;5010647;28;20654;-93
2021/03/14 10:22:37;;;;;;;0.30;0.30;;;9.70;99.90;;;;;;5013023;28;20194;-94
2021/03/14 10:25:04;;;;;;;0.30;0.30;;;10.10;99.90;;;;;;5012021;28;20304;-94
2021/03/14 10:27:31;;;;;;;0.50;0.50;;;10.10;99.90;;;;;;5008646;28;20218;-93
2021/03/14 10:29:59;;;;;;;2.67;1.47;;;9.70;99.90;;;;;;5008310;28;20360;-94
2021/03/14 10:32:27;;;;;;;1.53;0.83;;;9.40;99.90;;;;;;5012381;28;20683;-94
2021/03/14 10:35:04;;;;;;;0.20;0.20;;;9.70;99.90;;;;;;5011583;28;20851;-94
2021/03/14 10:37:35;;;;;;;3.83;1.53;;;9.70;99.90;;;;;;5010018;28;20213;-93
2021/03/14 10:40:12;;;;;;;0.20;0.20;;;9.50;99.90;;;;;;5025599;28;20671;-91
2021/03/14 10:42:44;;;;;;;4.43;1.00;;;9.30;99.90;;;;;;5012476;28;20211;-91
2021/03/14 10:45:16;;;;;;;0.63;0.40;;;9.70;99.90;;;;;;5007534;28;20280;-92
2021/03/14 10:47:43;;;;;;;2.40;1.13;;;10.50;99.90;;;;;;4994002;28;20207;-93
2021/03/14 10:50:35;;;;;;;2.33;0.80;;;11.00;99.90;;;;;;5016428;28;20792;-92
2021/03/14 10:53:14;;;;;;;0.63;0.63;;;11.30;99.90;;;;;;5005487;28;20217;-94
2021/03/14 10:55:41;;;;;;;1.03;0.97;;;11.30;99.90;;;;;;4992107;28;20198;-94
2021/03/14 10:58:18;;;;;;;1.70;1.10;;;10.80;99.90;;;;;;5026160;28;20209;-94
2021/03/14 11:00:46;;;;;;;0.57;0.57;;;10.40;99.90;;;;;;5010329;28;20217;-94
2021/03/14 11:03:31;;;;;;;1.53;0.50;;;10.20;99.90;;;;;;5026185;28;20210;-95
2021/03/14 11:06:22;;;;;;;0.20;0.20;;;10.80;99.90;;;;;;5027327;28;20689;-93
2021/03/14 11:08:56;;;;;;;0.83;0.83;;;10.40;99.90;;;;;;5044900;28;20244;-92
2021/03/14 11:11:42;;;;;;;1.70;0.83;;;10.00;99.90;;;;;;5028214;28;20308;-91
2021/03/14 11:14:38;;;;;;;0.13;0.13;;;10.20;99.90;;;;;;5007233;28;20932;-94
2021/03/14 11:17:12;;;;;;;12.63;1.00;;;10.30;99.90;;;;;;5027266;28;21009;-95
2021/03/14 11:19:44;;;;;;;0.43;0.43;;;10.80;99.90;;;;;;5046370;28;20174;-95
2021/03/14 11:22:16;;;;;;;5.13;0.80;;;10.80;99.90;;;;;;5017229;28;20202;-94
2021/03/14 11:24:42;;;;;;;2.97;1.53;;;10.90;99.90;;;;;;5014595;28;20276;-96
2021/03/14 11:27:08;;;;;;;1.07;0.47;;;10.90;99.90;;;;;;5004819;28;20218;-94
2021/03/14 11:29:35;;;;;;;4.37;1.37;;;11.40;99.90;;;;;;5026924;28;20305;-94
2021/03/14 11:32:01;;;;;;;0.50;0.50;;;11.40;99.90;;;;;;5007893;28;20201;-95
2021/03/14 11:34:27;;;;;;;3.43;0.90;;;11.10;99.90;;;;;;4992274;28;20227;-93
2021/03/14 11:36:53;;;;;;;1.90;1.10;;;11.00;99.90;;;;;;4974989;28;20841;-92
2021/03/14 11:39:19;;;;;;;2.83;1.83;;;11.00;99.90;;;;;;4974715;28;20254;-92
2021/03/14 11:41:48;;;;;;;0.40;0.40;;;10.90;99.90;;;;;;4990672;28;20264;-94
2021/03/14 11:44:15;;;;;;;4.00;1.73;;;10.50;99.90;;;;;;5010070;28;20222;-94
2021/03/14 11:46:41;;;;;;;6.23;1.50;;;10.70;99.90;;;;;;5012784;28;20233;-96
2021/03/14 11:49:07;;;;;;;4.33;0.53;;;11.10;99.90;;;;;;5009733;28;20229;-91
2021/03/14 11:51:33;;;;;;;6.70;1.30;;;11.30;99.90;;;;;;5009968;28;20844;-94
2021/03/14 11:54:00;;;;;;;5.93;0.63;;;11.40;99.90;;;;;;5009775;28;20214;-94
2021/03/14 11:56:27;;;;;;;1.20;1.10;;;11.50;99.90;;;;;;4993816;28;20206;-91
2021/03/14 11:58:53;;;;;;;2.40;1.13;;;11.40;99.90;;;;;;5010857;28;20178;-94
2021/03/14 12:01:20;;;;;;;7.10;0.73;;;11.40;99.90;;;;;;5027525;28;20200;-94
2021/03/14 12:03:46;;;;;;;3.87;1.20;;;11.70;99.90;;;;;;4982900;28;20210;-94
2021/03/14 12:06:13;;;;;;;1.80;0.80;;;11.30;99.90;;;;;;5005033;28;20214;-93
2021/03/14 12:08:39;;;;;;;0.60;0.60;;;11.30;99.90;;;;;;5006736;28;20226;-93
2021/03/14 12:11:06;;;;;;;12.77;1.27;;;11.10;99.90;;;;;;4976886;28;20182;-94
2021/03/14 12:13:34;;;;;;;0.40;0.40;;;11.20;99.90;;;;;;5012033;28;20213;-92
2021/03/14 12:16:02;;;;;;;2.53;0.87;;;10.90;99.90;;;;;;4993839;28;20698;-94
2021/03/14 12:18:28;;;;;;;6.97;1.07;;;10.60;99.90;;;;;;4996922;28;20230;-95
2021/03/14 12:20:54;;;;;;;0.80;0.60;;;10.30;99.90;;;;;;5009248;28;20217;-93
2021/03/14 12:23:20;;;;;;;0.83;0.60;;;10.30;99.90;;;;;;4993752;28;20229;-94
2021/03/14 12:25:45;;;;;;;2.97;1.07;;;10.30;99.90;;;;;;4995282;28;20749;-94
2021/03/14 12:28:12;;;;;;;4.80;1.43;;;10.40;99.90;;;;;;4993696;28;20259;-95
2021/03/14 12:30:38;;;;;;;1.03;0.53;;;10.10;99.90;;;;;;5025394;28;20710;-94
2021/03/14 12:33:05;;;;;;;0.80;0.80;;;9.80;99.90;;;;;;4989999;28;20231;-93
2021/03/14 12:35:31;;;;;;;7.30;0.87;;;9.70;99.90;;;;;;4989981;28;20210;-94
2021/03/14 12:37:57;;;;;;;0.40;0.40;;;9.70;99.90;;;;;;4990566;28;20182;-94
2021/03/14 12:40:23;;;;;;;6.50;0.83;;;9.80;99.90;;;;;;4991898;28;20624;-94
2021/03/14 12:42:48;;;;;;;0.37;0.37;;;9.60;99.90;;;;;;5006897;28;20225;-93
2021/03/14 12:45:14;;;;;;;5.43;1.60;;;10.00;99.90;;;;;;4993447;28;20632;-91
2021/03/14 12:47:40;;;;;;;0.70;0.70;;;10.60;99.90;;;;;;4993664;28;20301;-94
2021/03/14 12:50:07;;;;;;;0.60;0.60;;;10.60;99.90;;;;;;4993394;28;20195;-93
2021/03/14 12:52:36;;;;;;;9.03;1.27;;;10.70;99.90;;;;;;5011556;28;20225;-92
2021/03/14 12:55:03;;;;;;;3.57;1.97;;;10.10;99.90;;;;;;5012082;28;20272;-93
2021/03/14 12:57:29;;;;;;;0.60;0.60;;;10.20;99.90;;;;;;5013317;28;20222;-95
2021/03/14 12:59:54;;;;;;;5.50;1.23;;;9.80;99.90;;;;;;5029375;28;20751;-94
2021/03/14 13:02:20;;;;;;;6.70;0.83;;;9.70;99.90;;;;;;5029927;28;20990;-94
2021/03/14 13:04:46;;;;;;;4.33;0.80;;;9.80;99.90;;;;;;4998389;28;21120;-94